Nearby METAR Reports

 

KPMP - Pompano Beach, Florida, USA
Distance from station: NNW 3mi, 5km
Updated: 06/16/2021 3:53pm
Mostly cloudy
Mostly cloudy
 Wind from calm
Wind: Calm
Temperature: 79°F , 26°C
Dew Point: 73°F , 23°C
Humidity: 84%
Barometer: 30.01 inHg , 1016.3 hPa
Clouds: Mostly cloudy
Visibility: 10 miles , 16 km
Cloud details: Few Clouds 4700 ft
Mostly cloudy 11000 ft
2021/06/16 19:53 KPMP 161953Z 00000KT 10SM FEW047 BKN110 26/23 A3001 RMK AO2 LTG DSNT NW RAE47 SLP161 P0002 T02610228
KFXE - Ft Lauderd/Exec, Florida, USA
Distance from station: W 6mi, 9km
Updated: 06/16/2021 3:53pm
Overcast
Overcast
 Wind from N
Wind: N 3 mph , 6 km/h
Temperature: 79°F , 26°C
Dew Point: 75°F , 24°C
Humidity: 89%
Barometer: 30.00 inHg , 1015.9 hPa
Clouds: Overcast
Visibility: 10 miles , 16 km
Cloud details: Overcast 11000 ft
2021/06/16 19:53 KFXE 161953Z AUTO 01003KT 10SM OVC110 26/24 A3000 RMK AO2 RAE50 SLP161 P0000 T02560239 TSNO
 
KFLL - Ft Lauderd/Holly, Florida, USA
Distance from station: SSW 11mi, 17km
Updated: 06/16/2021 3:53pm
Overcast
Overcast
 Wind from NE
Wind: NE 3 mph , 6 km/h
Temperature: 81°F , 27°C
Heat Index: 87°F , 31°C
Dew Point: 75°F , 24°C
Humidity: 84%
Barometer: 30.00 inHg , 1015.9 hPa
Clouds: Overcast
Visibility: 10 miles , 16 km
Cloud details: Few Clouds 3000 ft
Partly cloudy 7000 ft
Partly cloudy 12000 ft
Mostly cloudy 18000 ft
Overcast 25000 ft
2021/06/16 19:53 KFLL 161953Z 04003KT 10SM FEW030 SCT070 SCT120 BKN180 OVC250 27/24 A3000 RMK AO2 LTG DSNT N AND NW RAB13E23 SLP157 P0000 T02670239 $
KBCT - Boca Raton, Florida, USA
Distance from station: N 12mi, 19km
Updated: 06/16/2021 2:47pm
NOT Current
Nearby thunderstorm, Haze, Clear
Nearby thunderstorm, Haze, Clear
 Wind from SSW
Wind: SSW 5 mph , 7 km/h
Temperature: 79°F , 26°C
Dew Point: 73°F , 23°C
Humidity: 84%
Barometer: 30.01 inHg , 1016.3 hPa
Summary: Nearby thunderstorm, Haze
Clouds: Clear
Visibility: 6 miles , 10 km
2021/06/16 18:47 KBCT 161847Z 20004KT 6SM VCTS HZ CLR 26/23 A3001
 
KHWO - Hollywood, Florida, USA
Distance from station: SSW 17mi, 27km
Updated: 06/16/2021 4:04pm
Mostly cloudy
Mostly cloudy
 Wind from NE
Wind: NE 6 mph , 9 km/h
Temperature: 79°F , 26°C
Dew Point: 72°F , 22°C
Humidity: 79%
Barometer: 30.02 inHg , 1016.6 hPa
Clouds: Mostly cloudy
Visibility: 10 miles , 16 km
Cloud details: Mostly cloudy 2300 ft
Mostly cloudy 12000 ft
2021/06/16 20:04 KHWO 162004Z 04005KT 10SM BKN023 BKN120 26/22 A3002 RMK AO2 LTG DSNT S AND SW P0001 T02560222
KOPF - Miami/Opa Locka, Florida, USA
Distance from station: SSW 24mi, 38km
Updated: 06/16/2021 4:17pm
Nearby thunderstorm, Mostly cloudy
Nearby thunderstorm, Mostly cloudy
 Wind from ESE
Wind: ESE 7 mph , 11 km/h
Temperature: 82°F , 28°C
Heat Index: 86°F , 30°C
Dew Point: 70°F , 21°C
Humidity: 66%
Barometer: 30.01 inHg , 1016.3 hPa
Summary: Nearby Thunderstorm
Clouds: Mostly cloudy
Visibility: 10 miles , 16 km
Cloud details: Few Clouds 2100 ft
Mostly cloudy 11000 ft
2021/06/16 20:17 KOPF 162017Z 11006KT 10SM VCTS FEW021 BKN110 28/21 A3001 RMK AO2 LTG DSNT S AND SW T02780211
 
KMIA - Miami, Florida, USA
Distance from station: SSW 31mi, 50km
Updated: 06/16/2021 4:13pm
Light thunderstorm, Rain, Overcast
Light thunderstorm, Rain, Overcast
 Wind from varies
Wind: varies 6 mph , 9 km/h, Gust: 16 mph , 26 km/h
Temperature: 79°F , 26°C
Dew Point: 72°F , 22°C
Humidity: 79%
Barometer: 30.00 inHg , 1015.9 hPa
Summary: Light thunderstorm, Rain
Clouds: Overcast
Visibility: 10 miles , 16 km
Cloud details: Few Clouds 1700 ft
Mostly cloudy 11000 ft
Overcast 25000 ft
2021/06/16 20:13 KMIA 162013Z VRB05G14KT 10SM -TSRA FEW017CB BKN110 OVC250 26/22 A3000 RMK AO2 LTG DSNT S AND SW RAB10 TSB11 OCNL LTGICCG VC S-W TS VC S-W MOV N CB E-SE MOV N P0000 T02610222 $
KPBI - West Palm Beach, Florida, USA
Distance from station: N 33mi, 52km
Updated: 06/16/2021 3:53pm
Light thunderstorm, Rain, Mostly cloudy
Light thunderstorm, Rain, Mostly cloudy
 Wind from calm
Wind: Calm
Temperature: 79°F , 26°C
Dew Point: 73°F , 23°C
Humidity: 84%
Barometer: 30.02 inHg , 1016.6 hPa
Summary: Light thunderstorm, Rain
Clouds: Mostly cloudy
Visibility: 10 miles , 16 km
Cloud details: Partly cloudy 3100 ft
Partly cloudy 6500 ft
Mostly cloudy 11000 ft
2021/06/16 19:53 KPBI 161953Z 00000KT 10SM -TSRA SCT031CB SCT065 BKN110 26/23 A3002 RMK AO2 LTG DSNT SW-N SLP165 OCNL LTGICCG SW-NW TS SW-NW MOV NE CB DSNT NE P0000 T02560228 $
 
KTMB - Miami/Tamiami, Florida, USA
Distance from station: SSW 44mi, 71km
Updated: 06/16/2021 4:15pm
Heavy thunderstorm, Rain, Mist, Overcast
Heavy thunderstorm, Rain, Mist, Overcast
 Wind from SE
Wind: SE 3 mph , 6 km/h
Temperature: 73°F , 23°C
Dew Point: 72°F , 22°C
Humidity: 94%
Barometer: 30.01 inHg , 1016.3 hPa
Summary: Heavy thunderstorm, Rain, Mist
Clouds: Overcast
Visibility: 1 1/2 miles , 2.4 km
Cloud details: Mostly cloudy 2300 ft
Mostly cloudy 4600 ft
Overcast 6000 ft
2021/06/16 20:15 KTMB 162015Z 14003KT 1 1/2SM +TSRA BR BKN023 BKN046 OVC060 23/22 A3001 RMK AO2 LTG DSNT NE P0083 T02330217